createdAt,value
2022-10-30T00:00:59.305Z,6.10
2022-10-30T00:03:25.990Z,4.93
2022-10-30T00:05:52.766Z,5.37
2022-10-30T00:08:21.675Z,5.70
2022-10-30T00:10:51.978Z,5.30
2022-10-30T00:13:20.299Z,5.40
2022-10-30T00:15:54.096Z,5.10
2022-10-30T00:18:21.138Z,5.80
2022-10-30T00:20:48.511Z,5.97
2022-10-30T00:23:15.478Z,6.50
2022-10-30T00:25:42.070Z,5.90
2022-10-30T00:28:08.863Z,5.77
2022-10-30T00:30:35.730Z,5.80
2022-10-30T00:33:03.081Z,6.60
2022-10-30T00:35:30.327Z,6.17
2022-10-30T00:37:57.433Z,5.70
2022-10-30T00:40:24.503Z,5.60
2022-10-30T00:42:51.880Z,5.53
2022-10-30T00:45:18.510Z,6.13
2022-10-30T00:47:52.847Z,6.07
2022-10-30T00:53:01.871Z,6.53
2022-10-30T00:55:37.729Z,6.03
2022-10-30T00:58:09.472Z,6.40
2022-10-30T01:00:36.940Z,6.00
2022-10-30T01:03:04.815Z,6.07
2022-10-30T01:05:33.498Z,6.07
2022-10-30T01:08:00.499Z,4.87
2022-10-30T01:10:27.540Z,5.73
2022-10-30T01:12:55.808Z,6.00
2022-10-30T01:15:31.360Z,5.70
2022-10-30T01:18:18.201Z,6.53
2022-10-30T01:21:11.858Z,6.07
2022-10-30T01:23:50.622Z,6.60
2022-10-30T01:26:38.550Z,6.63
2022-10-30T01:29:47.734Z,5.50
2022-10-30T01:32:38.024Z,4.97
2022-10-30T01:35:13.584Z,7.13
2022-10-30T01:37:52.626Z,6.17
2022-10-30T01:40:21.108Z,6.60
2022-10-30T01:42:51.263Z,7.70
2022-10-30T01:45:55.289Z,6.30
2022-10-30T01:49:06.261Z,6.67
2022-10-30T01:51:51.079Z,6.03
2022-10-30T01:54:26.783Z,6.50
2022-10-30T01:57:27.401Z,5.77
2022-10-30T01:59:57.339Z,7.27
2022-10-30T02:02:24.384Z,6.17
2022-10-30T02:04:52.153Z,7.23
2022-10-30T02:07:19.091Z,6.27
2022-10-30T02:09:51.587Z,5.90
2022-10-30T02:12:19.679Z,6.77
2022-10-30T02:14:51.011Z,7.27
2022-10-30T02:17:19.282Z,6.60
2022-10-30T02:19:49.054Z,6.83
2022-10-30T02:22:17.790Z,6.93
2022-10-30T02:24:45.215Z,6.30
2022-10-30T02:27:12.255Z,6.63
2022-10-30T02:29:40.751Z,6.63
2022-10-30T02:32:07.367Z,6.10
2022-10-30T02:34:34.923Z,6.23
2022-10-30T02:37:01.572Z,6.60
2022-10-30T02:39:28.247Z,6.13
2022-10-30T02:41:55.315Z,6.50
2022-10-30T02:44:22.116Z,6.43
2022-10-30T02:46:48.887Z,7.53
2022-10-30T02:49:15.479Z,7.13
2022-10-30T02:51:42.061Z,6.80
2022-10-30T02:54:09.635Z,6.80
2022-10-30T02:56:39.832Z,6.87
2022-10-30T02:59:06.494Z,6.33
2022-10-30T03:01:33.217Z,6.80
2022-10-30T03:04:00.150Z,7.00
2022-10-30T03:06:27.064Z,7.13
2022-10-30T03:08:53.633Z,7.57
2022-10-30T03:11:21.013Z,7.77
2022-10-30T03:13:48.595Z,7.17
2022-10-30T03:16:24.403Z,7.10
2022-10-30T03:18:52.280Z,6.33
2022-10-30T03:21:22.395Z,7.20
2022-10-30T03:23:52.183Z,7.57
2022-10-30T03:26:19.429Z,7.07
2022-10-30T03:28:51.719Z,7.87
2022-10-30T03:31:19.592Z,6.40
2022-10-30T03:33:49.419Z,6.90
2022-10-30T03:36:17.022Z,7.10
2022-10-30T03:38:43.720Z,7.60
2022-10-30T03:41:13.806Z,6.60
2022-10-30T03:43:40.439Z,6.60
2022-10-30T03:46:07.191Z,7.10
2022-10-30T03:48:34.456Z,7.80
2022-10-30T03:51:01.281Z,7.10
2022-10-30T03:53:28.951Z,6.67
2022-10-30T03:56:04.330Z,6.83
2022-10-30T03:58:53.686Z,6.97
2022-10-30T04:01:22.407Z,7.60
2022-10-30T04:03:54.531Z,7.53
2022-10-30T04:06:21.883Z,7.60
2022-10-30T04:08:48.587Z,8.70
2022-10-30T04:11:15.307Z,7.03
2022-10-30T04:13:42.022Z,7.27
2022-10-30T04:16:08.677Z,8.30
2022-10-30T04:18:35.358Z,8.20
2022-10-30T04:21:02.123Z,7.77
2022-10-30T04:23:28.927Z,6.73
2022-10-30T04:25:56.143Z,7.40
2022-10-30T04:28:23.221Z,7.97
2022-10-30T04:30:49.889Z,6.77
2022-10-30T04:33:17.818Z,7.40
2022-10-30T04:35:44.559Z,6.70
2022-10-30T04:38:19.792Z,6.20
2022-10-30T04:40:47.647Z,6.90
2022-10-30T04:43:15.257Z,7.83
2022-10-30T04:45:43.504Z,7.23
2022-10-30T04:48:14.816Z,7.50
2022-10-30T04:50:43.246Z,7.67
2022-10-30T04:53:15.611Z,6.83
2022-10-30T04:55:44.042Z,7.00
2022-10-30T04:58:12.384Z,7.40
2022-10-30T05:00:41.087Z,7.73
2022-10-30T05:03:29.304Z,7.43
2022-10-30T05:06:06.106Z,8.10
2022-10-30T05:08:33.394Z,6.77
2022-10-30T05:11:05.389Z,7.30
2022-10-30T05:13:32.530Z,7.93
2022-10-30T05:15:59.114Z,7.70
2022-10-30T05:18:25.711Z,6.23
2022-10-30T05:20:52.721Z,7.40
2022-10-30T05:23:19.334Z,6.13
2022-10-30T05:25:46.232Z,6.97
2022-10-30T05:28:15.644Z,8.70
2022-10-30T05:30:46.683Z,7.10
2022-10-30T05:33:39.615Z,7.40
2022-10-30T05:36:06.646Z,7.07
2022-10-30T05:38:33.581Z,6.27
2022-10-30T05:41:00.565Z,7.23
2022-10-30T05:43:27.166Z,6.33
2022-10-30T05:45:53.811Z,7.10
2022-10-30T05:48:20.623Z,7.50
2022-10-30T05:50:47.347Z,7.50
2022-10-30T05:53:25.484Z,8.57
2022-10-30T05:55:57.880Z,8.00
2022-10-30T05:58:25.439Z,7.87
2022-10-30T06:00:54.426Z,9.10
2022-10-30T06:03:34.743Z,8.13
2022-10-30T06:06:01.898Z,8.80
2022-10-30T06:08:28.539Z,9.77
2022-10-30T06:10:58.267Z,8.37
2022-10-30T06:13:36.327Z,9.40
2022-10-30T06:16:09.129Z,8.90
2022-10-30T06:18:54.586Z,7.53
2022-10-30T06:21:21.325Z,8.80
2022-10-30T06:23:56.097Z,8.43
2022-10-30T06:26:36.434Z,7.83
2022-10-30T06:29:08.718Z,7.43
2022-10-30T06:31:35.337Z,8.00
2022-10-30T06:34:02.800Z,7.70
2022-10-30T06:36:31.710Z,7.97
2022-10-30T06:38:59.098Z,7.83
2022-10-30T06:41:31.001Z,23.07
2022-10-30T06:44:20.442Z,14.10
2022-10-30T06:46:47.024Z,9.50
2022-10-30T06:49:13.667Z,8.53
2022-10-30T06:51:40.344Z,8.10
2022-10-30T06:54:07.030Z,8.17
2022-10-30T06:56:53.600Z,7.13
2022-10-30T06:59:38.491Z,8.83
2022-10-30T07:02:24.075Z,6.80
2022-10-30T07:04:54.784Z,8.20
2022-10-30T07:07:21.490Z,8.27
2022-10-30T07:09:48.174Z,7.40
2022-10-30T07:12:17.502Z,8.00
2022-10-30T07:15:07.374Z,8.13
2022-10-30T07:17:39.967Z,6.70
2022-10-30T07:20:13.524Z,7.67
2022-10-30T07:22:40.460Z,8.43
2022-10-30T07:25:08.302Z,7.30
2022-10-30T07:27:45.216Z,7.87
2022-10-30T07:30:29.305Z,8.20
2022-10-30T07:33:17.738Z,8.50
2022-10-30T07:35:55.841Z,7.60
2022-10-30T07:38:45.356Z,7.57
2022-10-30T07:41:22.956Z,7.53
2022-10-30T07:43:52.126Z,7.30
2022-10-30T07:46:41.478Z,7.40
2022-10-30T07:49:22.591Z,6.47
2022-10-30T07:51:52.843Z,7.57
2022-10-30T07:54:20.173Z,7.47
2022-10-30T07:56:47.683Z,7.17
2022-10-30T07:59:33.098Z,7.07
2022-10-30T08:02:23.011Z,7.20
2022-10-30T08:05:05.827Z,7.67
2022-10-30T08:07:55.063Z,6.80
2022-10-30T08:10:21.702Z,7.07
2022-10-30T08:12:48.742Z,7.67
2022-10-30T08:15:16.252Z,7.07
2022-10-30T08:17:47.874Z,6.20
2022-10-30T08:20:16.755Z,6.47
2022-10-30T08:22:54.773Z,7.03
2022-10-30T08:25:29.479Z,5.67
2022-10-30T08:27:57.599Z,6.63
2022-10-30T08:30:28.591Z,6.23
2022-10-30T08:33:01.822Z,5.97
2022-10-30T08:35:49.656Z,6.07
2022-10-30T08:38:16.681Z,5.50
2022-10-30T08:40:44.852Z,5.90
2022-10-30T08:43:12.017Z,5.70
2022-10-30T08:45:40.553Z,6.37
2022-10-30T08:48:15.921Z,6.50
2022-10-30T08:50:44.794Z,6.13
2022-10-30T08:53:15.522Z,5.80
2022-10-30T08:55:44.115Z,6.97
2022-10-30T08:58:19.975Z,6.20
2022-10-30T09:00:47.342Z,5.70
2022-10-30T09:03:14.053Z,6.27
2022-10-30T09:06:11.968Z,5.03
2022-10-30T09:09:04.469Z,5.87
2022-10-30T09:11:43.460Z,6.73
2022-10-30T09:14:10.102Z,5.77
2022-10-30T09:16:36.691Z,6.00
2022-10-30T09:19:03.354Z,6.40
2022-10-30T09:21:29.987Z,6.50
2022-10-30T09:23:56.712Z,5.50
2022-10-30T09:26:35.539Z,5.90
2022-10-30T09:29:21.320Z,6.23
2022-10-30T09:32:10.357Z,6.47
2022-10-30T09:34:48.277Z,5.60
2022-10-30T09:37:23.282Z,5.93
2022-10-30T09:39:54.034Z,5.80
2022-10-30T09:42:43.384Z,5.03
2022-10-30T09:45:30.257Z,6.23
2022-10-30T09:48:30.358Z,6.03
2022-10-30T09:51:43.742Z,5.73
2022-10-30T09:54:44.012Z,5.20
2022-10-30T09:57:19.489Z,6.50
2022-10-30T09:59:58.141Z,5.73
2022-10-30T10:02:32.207Z,4.83
2022-10-30T10:05:04.155Z,6.07
2022-10-30T10:08:06.497Z,5.60
2022-10-30T10:10:59.949Z,5.40
2022-10-30T10:13:55.719Z,4.63
2022-10-30T10:16:29.110Z,5.47
2022-10-30T10:19:13.671Z,5.17
2022-10-30T10:21:45.786Z,5.77
2022-10-30T10:24:23.138Z,4.97
2022-10-30T10:27:15.174Z,5.83
2022-10-30T10:30:16.997Z,5.30
2022-10-30T10:33:11.399Z,5.23
2022-10-30T10:35:52.454Z,5.83
2022-10-30T10:38:38.286Z,4.80
2022-10-30T10:41:22.483Z,5.27
2022-10-30T10:44:11.118Z,4.77
2022-10-30T10:46:56.637Z,5.27
2022-10-30T10:49:52.078Z,5.93
2022-10-30T10:52:43.133Z,5.00
2022-10-30T10:55:19.557Z,4.43
2022-10-30T10:57:47.441Z,4.70
2022-10-30T11:00:23.471Z,4.37
2022-10-30T11:03:05.703Z,5.70
2022-10-30T11:05:52.499Z,5.00
2022-10-30T11:08:21.015Z,5.43
2022-10-30T11:11:03.819Z,5.03
2022-10-30T11:13:42.122Z,4.80
2022-10-30T11:16:25.854Z,4.90
2022-10-30T11:18:57.171Z,4.90
2022-10-30T11:21:26.755Z,4.87
2022-10-30T11:23:53.777Z,4.47
2022-10-30T11:26:20.363Z,5.10
2022-10-30T11:28:57.054Z,5.13
2022-10-30T11:31:34.590Z,4.40
2022-10-30T11:34:17.442Z,5.33
2022-10-30T11:36:48.994Z,5.10
2022-10-30T11:39:27.233Z,5.40
2022-10-30T11:42:15.263Z,5.33
2022-10-30T11:44:51.734Z,4.80
2022-10-30T11:47:32.416Z,4.93
2022-10-30T11:50:01.627Z,4.57
2022-10-30T11:52:28.851Z,4.57
2022-10-30T11:55:01.177Z,4.80
2022-10-30T11:57:49.858Z,5.27
2022-10-30T12:00:31.717Z,4.70
2022-10-30T12:03:03.432Z,4.27
2022-10-30T12:05:32.888Z,4.20
2022-10-30T12:08:20.351Z,4.17
2022-10-30T12:11:11.017Z,5.50
2022-10-30T12:13:39.892Z,3.97
2022-10-30T12:16:19.366Z,4.43
2022-10-30T12:19:16.274Z,4.47
2022-10-30T12:21:50.950Z,4.53
2022-10-30T12:24:31.644Z,5.20
2022-10-30T12:27:02.581Z,3.93
2022-10-30T12:30:07.469Z,4.30
2022-10-30T12:33:03.388Z,5.10
2022-10-30T12:35:58.954Z,3.83
2022-10-30T12:38:37.043Z,4.47
2022-10-30T12:41:32.436Z,5.10
2022-10-30T12:44:14.125Z,4.20
2022-10-30T12:46:58.729Z,4.17
2022-10-30T12:49:39.969Z,4.67
2022-10-30T12:52:30.600Z,4.37
2022-10-30T12:55:18.448Z,3.77
2022-10-30T12:58:04.206Z,4.50
2022-10-30T13:00:40.896Z,4.60
2022-10-30T13:03:31.602Z,4.13
2022-10-30T13:06:05.851Z,4.50
2022-10-30T13:08:36.528Z,4.30
2022-10-30T13:11:32.921Z,4.87
2022-10-30T13:14:00.936Z,8.20
2022-10-30T13:16:29.560Z,4.90
2022-10-30T13:18:59.412Z,4.00
2022-10-30T13:21:34.869Z,4.10
2022-10-30T13:24:11.091Z,3.77
2022-10-30T13:26:57.562Z,4.20
2022-10-30T13:29:30.426Z,4.00
2022-10-30T13:32:18.837Z,4.13
2022-10-30T13:35:04.682Z,4.50
2022-10-30T13:37:41.898Z,3.60
2022-10-30T13:40:12.615Z,3.73
2022-10-30T13:42:48.162Z,3.43
2022-10-30T13:45:34.562Z,4.03
2022-10-30T13:48:33.854Z,3.30
2022-10-30T13:51:38.660Z,3.80
2022-10-30T13:54:31.262Z,4.53
2022-10-30T13:57:14.319Z,4.00
2022-10-30T14:00:17.991Z,3.33
2022-10-30T14:03:14.389Z,3.90
2022-10-30T14:06:00.898Z,3.57
2022-10-30T14:08:39.703Z,4.00
2022-10-30T14:11:10.840Z,3.67
2022-10-30T14:13:55.517Z,3.60
2022-10-30T14:16:40.700Z,3.90
2022-10-30T14:19:09.775Z,3.80
2022-10-30T14:21:56.760Z,4.27
2022-10-30T14:24:30.543Z,3.73
2022-10-30T14:27:03.372Z,3.40
2022-10-30T14:29:35.963Z,4.10
2022-10-30T14:32:22.489Z,3.97
2022-10-30T14:34:52.928Z,4.20
2022-10-30T14:37:28.722Z,4.10
2022-10-30T14:39:57.100Z,4.17
2022-10-30T14:42:47.430Z,3.27
2022-10-30T14:45:27.373Z,3.40
2022-10-30T14:48:10.660Z,3.93
2022-10-30T14:50:52.423Z,4.00
2022-10-30T14:53:48.883Z,4.80
2022-10-30T14:56:23.667Z,4.23
2022-10-30T14:59:13.330Z,3.30
2022-10-30T15:01:54.941Z,4.17
2022-10-30T15:04:30.746Z,3.97
2022-10-30T15:07:05.895Z,4.13
2022-10-30T15:10:03.464Z,3.80
2022-10-30T15:13:17.923Z,3.77
2022-10-30T15:15:46.355Z,4.17
2022-10-30T15:18:19.178Z,4.10
2022-10-30T15:20:52.513Z,3.87
2022-10-30T15:23:27.001Z,3.60
2022-10-30T15:25:55.967Z,4.13
2022-10-30T15:28:27.886Z,3.60
2022-10-30T15:31:06.248Z,3.57
2022-10-30T15:33:37.494Z,3.60
2022-10-30T15:36:05.401Z,3.60
2022-10-30T15:38:32.062Z,4.50
2022-10-30T15:41:02.106Z,3.93
2022-10-30T15:43:33.162Z,4.27
2022-10-30T15:45:59.934Z,3.60
2022-10-30T15:48:37.950Z,3.70
2022-10-30T15:51:06.207Z,4.40
2022-10-30T15:53:45.215Z,3.93
2022-10-30T15:56:19.899Z,4.10
2022-10-30T15:59:04.204Z,3.27
2022-10-30T16:01:33.540Z,4.23
2022-10-30T16:04:00.763Z,3.60
2022-10-30T16:06:31.769Z,4.47
2022-10-30T16:08:58.695Z,3.70
2022-10-30T16:11:26.811Z,3.97
2022-10-30T16:13:53.748Z,4.40
2022-10-30T16:16:29.148Z,4.60
2022-10-30T16:19:01.933Z,3.80
2022-10-30T16:21:30.829Z,3.80
2022-10-30T16:24:00.894Z,3.70
2022-10-30T16:26:33.035Z,4.27
2022-10-30T16:29:16.827Z,4.53
2022-10-30T16:31:49.479Z,4.23
2022-10-30T16:34:26.068Z,4.80
2022-10-30T16:36:53.868Z,4.70
2022-10-30T16:39:21.810Z,3.93
2022-10-30T16:41:48.993Z,4.80
2022-10-30T16:44:29.655Z,4.33
2022-10-30T16:47:04.483Z,4.43
2022-10-30T16:49:34.406Z,5.57
2022-10-30T16:52:07.071Z,4.57
2022-10-30T16:54:39.247Z,4.27
2022-10-30T16:57:19.380Z,4.87
2022-10-30T16:59:49.306Z,5.20
2022-10-30T17:02:22.210Z,4.30
2022-10-30T17:04:58.183Z,4.13
2022-10-30T17:07:26.483Z,4.93
2022-10-30T17:09:56.628Z,5.17
2022-10-30T17:12:25.355Z,5.57
2022-10-30T17:15:23.629Z,5.20
2022-10-30T17:18:15.256Z,5.20
2022-10-30T17:20:42.006Z,4.53
2022-10-30T17:23:18.695Z,5.33
2022-10-30T17:25:45.899Z,4.30
2022-10-30T17:28:27.841Z,5.70
2022-10-30T17:30:55.291Z,6.80
2022-10-30T17:33:24.982Z,7.73
2022-10-30T17:35:51.986Z,7.00
2022-10-30T17:38:19.179Z,8.13
2022-10-30T17:40:45.942Z,8.20
2022-10-30T17:43:16.571Z,8.10
2022-10-30T17:45:43.930Z,7.77
2022-10-30T17:48:15.629Z,7.60
2022-10-30T17:50:42.826Z,5.90
2022-10-30T17:53:18.503Z,5.37
2022-10-30T17:55:55.895Z,6.00
2022-10-30T17:58:23.529Z,6.93
2022-10-30T18:00:50.353Z,7.37
2022-10-30T18:03:16.998Z,8.30
2022-10-30T18:05:44.655Z,7.40
2022-10-30T18:08:11.290Z,7.03
2022-10-30T18:10:37.962Z,7.20
2022-10-30T18:13:04.578Z,5.83
2022-10-30T18:15:41.059Z,6.17
2022-10-30T18:18:07.811Z,6.87
2022-10-30T18:20:34.781Z,7.80
2022-10-30T18:23:02.151Z,6.93
2022-10-30T18:25:33.698Z,6.50
2022-10-30T18:28:00.578Z,6.77
2022-10-30T18:30:28.970Z,7.00
2022-10-30T18:32:56.793Z,6.27
2022-10-30T18:35:37.795Z,6.67
2022-10-30T18:38:05.448Z,6.60
2022-10-30T18:40:32.689Z,6.50
2022-10-30T18:42:59.738Z,6.77
2022-10-30T18:45:29.571Z,7.43
2022-10-30T18:47:57.594Z,6.93
2022-10-30T18:50:24.674Z,6.87
2022-10-30T18:52:51.333Z,7.30
2022-10-30T18:55:26.394Z,7.70
2022-10-30T18:57:53.153Z,8.37
2022-10-30T19:00:25.384Z,9.50
2022-10-30T19:02:52.802Z,7.27
2022-10-30T19:05:39.908Z,8.80
2022-10-30T19:08:07.211Z,8.00
2022-10-30T19:10:37.018Z,7.73
2022-10-30T19:13:17.659Z,7.93
2022-10-30T19:15:47.394Z,8.30
2022-10-30T19:18:14.546Z,9.20
2022-10-30T19:21:03.300Z,6.10
2022-10-30T19:23:28.030Z,7.77
2022-10-30T19:25:54.717Z,6.50
2022-10-30T19:28:21.534Z,7.23
2022-10-30T19:30:53.420Z,7.30
2022-10-30T19:33:22.998Z,7.07
2022-10-30T19:35:54.799Z,8.90
2022-10-30T19:38:21.849Z,6.80
2022-10-30T19:40:48.681Z,8.37
2022-10-30T19:43:15.459Z,7.23
2022-10-30T19:45:42.100Z,7.77
2022-10-30T19:48:20.767Z,7.10
2022-10-30T19:50:51.395Z,6.87
2022-10-30T19:53:18.095Z,7.40
2022-10-30T19:55:44.872Z,7.40
2022-10-30T19:58:14.198Z,8.10
2022-10-30T20:00:43.619Z,8.60
2022-10-30T20:03:12.674Z,7.87
2022-10-30T20:05:48.612Z,7.57
2022-10-30T20:08:20.336Z,7.40
2022-10-30T20:10:54.050Z,8.10
2022-10-30T20:13:23.180Z,7.80
2022-10-30T20:15:50.601Z,7.60
2022-10-30T20:18:27.268Z,9.13
2022-10-30T20:20:55.763Z,8.00
2022-10-30T20:23:23.923Z,8.30
2022-10-30T20:25:53.052Z,8.53
2022-10-30T20:28:24.957Z,7.70
2022-10-30T20:30:52.868Z,8.30
2022-10-30T20:33:20.030Z,7.63
2022-10-30T20:35:48.153Z,10.07
2022-10-30T20:38:22.371Z,7.70
2022-10-30T20:40:49.156Z,7.50
2022-10-30T20:43:18.598Z,7.40
2022-10-30T20:45:45.412Z,6.80
2022-10-30T20:48:12.513Z,8.47
2022-10-30T20:50:39.954Z,8.90
2022-10-30T20:53:06.977Z,7.63
2022-10-30T20:55:34.988Z,8.67
2022-10-30T20:58:02.910Z,9.67
2022-10-30T21:00:30.327Z,8.53
2022-10-30T21:02:56.955Z,10.37
2022-10-30T21:05:42.621Z,9.30
2022-10-30T21:08:10.303Z,8.20
2022-10-30T21:10:37.891Z,10.40
2022-10-30T21:13:08.478Z,9.90
2022-10-30T21:15:42.898Z,8.73
2022-10-30T21:18:10.750Z,7.70
2022-10-30T21:20:37.788Z,9.40
2022-10-30T21:23:05.224Z,9.63
2022-10-30T21:25:32.287Z,8.70
2022-10-30T21:27:59.275Z,8.20
2022-10-30T21:30:26.423Z,9.20
2022-10-30T21:32:53.309Z,8.20
2022-10-30T21:35:19.879Z,8.57
2022-10-30T21:37:46.468Z,10.23
2022-10-30T21:40:13.577Z,8.90
2022-10-30T21:42:40.187Z,8.30
2022-10-30T21:45:07.595Z,7.27
2022-10-30T21:47:34.188Z,7.97
2022-10-30T21:50:06.089Z,8.63
2022-10-30T21:52:34.678Z,9.90
2022-10-30T21:55:01.351Z,8.77
2022-10-30T21:57:29.200Z,7.90
2022-10-30T21:59:58.696Z,10.33
2022-10-30T22:02:31.068Z,7.60
2022-10-30T22:04:57.680Z,6.53
2022-10-30T22:07:24.313Z,7.00
2022-10-30T22:09:51.047Z,7.80
2022-10-30T22:12:17.629Z,9.50
2022-10-30T22:14:44.308Z,11.00
2022-10-30T22:17:10.925Z,8.10
2022-10-30T22:19:37.495Z,7.93
2022-10-30T22:22:04.065Z,7.00
2022-10-30T22:24:30.676Z,7.40
2022-10-30T22:26:57.249Z,7.40
2022-10-30T22:29:23.839Z,7.80
2022-10-30T22:31:50.414Z,9.30
2022-10-30T22:34:16.991Z,9.70
2022-10-30T22:36:43.607Z,10.10
2022-10-30T22:39:12.627Z,8.20
2022-10-30T22:41:40.287Z,7.37
2022-10-30T22:44:10.364Z,8.03
2022-10-30T22:46:37.635Z,9.20
2022-10-30T22:49:04.601Z,9.30
2022-10-30T22:51:33.159Z,7.90
2022-10-30T22:54:04.546Z,7.10
2022-10-30T22:56:33.649Z,7.73
2022-10-30T22:59:02.257Z,7.77
2022-10-30T23:01:31.253Z,8.20
2022-10-30T23:03:59.823Z,7.53
2022-10-30T23:06:28.398Z,8.10
2022-10-30T23:08:57.226Z,8.50
2022-10-30T23:11:26.221Z,7.87
2022-10-30T23:13:53.079Z,8.20
2022-10-30T23:16:21.988Z,8.07
2022-10-30T23:18:49.407Z,8.10
2022-10-30T23:21:18.714Z,7.63
2022-10-30T23:23:45.807Z,7.40
2022-10-30T23:26:21.244Z,8.10
2022-10-30T23:28:49.209Z,7.87
2022-10-30T23:31:21.435Z,7.20
2022-10-30T23:33:49.716Z,7.70
2022-10-30T23:36:17.048Z,6.80
2022-10-30T23:38:45.227Z,7.03
2022-10-30T23:41:11.810Z,7.57
2022-10-30T23:43:38.392Z,7.13
2022-10-30T23:46:05.117Z,6.70
2022-10-30T23:48:31.703Z,7.60
2022-10-30T23:50:58.342Z,6.97
2022-10-30T23:53:24.964Z,8.13
2022-10-30T23:55:55.008Z,8.10
2022-10-30T23:58:21.835Z,6.93
